Quarteles, New Mexico
Current Conditions -  °F | °C
As of 7:15 PM on Sunday 25 Jan 2015 (Local Time) from KLAM Reporting Station
Clear Clear  
Wind Chill: 39°   Ceiling: Unl
Heat Index: 44°   Visibility: 10mi
Dew Point: 21°   Wind: 8mph
Humidity: 40%   Direction: 330°NNW
Pressure: 30.3"   Gusts: NA
Location:  35.9775°N, 106.158°W
Report Text: KLAM 260215Z AUTO 33007KT 10SM CLR 07/M06 A3030 RMK AO2 T00651063
Loading
Personal Weather Stations






























Interactive Weather Map New forecast layout! Learn more

10-Day Weather Forecast

Advertisements
Track Severe Weather on mobile